sensor_id;sensor_type;location;lat;lon;timestamp;P1;durP1;ratioP1;P2;durP2;ratioP2
24147;SDS011;12309;51.450;-2.624;2022-11-20T00:00:50;20.13;;;6.30;;
24147;SDS011;12309;51.450;-2.624;2022-11-20T00:03:16;11.97;;;5.63;;
24147;SDS011;12309;51.450;-2.624;2022-11-20T00:05:42;15.33;;;6.10;;
24147;SDS011;12309;51.450;-2.624;2022-11-20T00:08:08;16.63;;;5.23;;
24147;SDS011;12309;51.450;-2.624;2022-11-20T00:10:35;17.83;;;4.83;;
24147;SDS011;12309;51.450;-2.624;2022-11-20T00:13:02;17.23;;;4.30;;
24147;SDS011;12309;51.450;-2.624;2022-11-20T00:15:28;9.07;;;4.67;;
24147;SDS011;12309;51.450;-2.624;2022-11-20T00:17:53;12.07;;;4.60;;
24147;SDS011;12309;51.450;-2.624;2022-11-20T00:20:19;10.60;;;4.40;;
24147;SDS011;12309;51.450;-2.624;2022-11-20T00:22:45;14.83;;;4.97;;
24147;SDS011;12309;51.450;-2.624;2022-11-20T00:25:10;13.07;;;5.37;;
24147;SDS011;12309;51.450;-2.624;2022-11-20T00:27:36;16.50;;;5.73;;
24147;SDS011;12309;51.450;-2.624;2022-11-20T00:30:02;19.50;;;5.23;;
24147;SDS011;12309;51.450;-2.624;2022-11-20T00:32:29;14.70;;;6.00;;
24147;SDS011;12309;51.450;-2.624;2022-11-20T00:34:54;14.17;;;4.97;;
24147;SDS011;12309;51.450;-2.624;2022-11-20T00:37:20;16.73;;;5.60;;
24147;SDS011;12309;51.450;-2.624;2022-11-20T00:39:46;12.87;;;5.67;;
24147;SDS011;12309;51.450;-2.624;2022-11-20T00:42:11;11.30;;;5.30;;
24147;SDS011;12309;51.450;-2.624;2022-11-20T00:44:37;12.77;;;5.83;;
24147;SDS011;12309;51.450;-2.624;2022-11-20T00:47:02;13.97;;;6.13;;
24147;SDS011;12309;51.450;-2.624;2022-11-20T00:49:28;15.20;;;5.87;;
24147;SDS011;12309;51.450;-2.624;2022-11-20T00:51:54;11.97;;;5.37;;
24147;SDS011;12309;51.450;-2.624;2022-11-20T00:54:19;13.83;;;5.43;;
24147;SDS011;12309;51.450;-2.624;2022-11-20T00:56:45;14.77;;;5.50;;
24147;SDS011;12309;51.450;-2.624;2022-11-20T00:59:11;16.17;;;6.10;;
24147;SDS011;12309;51.450;-2.624;2022-11-20T01:01:36;16.13;;;5.60;;
24147;SDS011;12309;51.450;-2.624;2022-11-20T01:04:03;13.27;;;5.53;;
24147;SDS011;12309;51.450;-2.624;2022-11-20T01:06:32;17.33;;;5.60;;
24147;SDS011;12309;51.450;-2.624;2022-11-20T01:09:01;9.73;;;5.20;;
24147;SDS011;12309;51.450;-2.624;2022-11-20T01:11:31;18.10;;;6.17;;
24147;SDS011;12309;51.450;-2.624;2022-11-20T01:13:58;16.43;;;5.73;;
24147;SDS011;12309;51.450;-2.624;2022-11-20T01:16:42;15.30;;;5.77;;
24147;SDS011;12309;51.450;-2.624;2022-11-20T01:19:14;12.50;;;5.80;;
24147;SDS011;12309;51.450;-2.624;2022-11-20T01:21:43;16.13;;;5.87;;
24147;SDS011;12309;51.450;-2.624;2022-11-20T01:24:12;14.67;;;6.30;;
24147;SDS011;12309;51.450;-2.624;2022-11-20T01:26:40;14.20;;;6.40;;
24147;SDS011;12309;51.450;-2.624;2022-11-20T01:29:09;14.40;;;6.00;;
24147;SDS011;12309;51.450;-2.624;2022-11-20T01:31:39;13.40;;;5.97;;
24147;SDS011;12309;51.450;-2.624;2022-11-20T01:34:13;12.93;;;5.57;;
24147;SDS011;12309;51.450;-2.624;2022-11-20T01:36:40;12.10;;;5.50;;
24147;SDS011;12309;51.450;-2.624;2022-11-20T01:39:09;11.73;;;5.97;;
24147;SDS011;12309;51.450;-2.624;2022-11-20T01:41:37;10.67;;;5.70;;
24147;SDS011;12309;51.450;-2.624;2022-11-20T01:44:39;12.63;;;5.33;;
24147;SDS011;12309;51.450;-2.624;2022-11-20T01:47:07;13.53;;;4.90;;
24147;SDS011;12309;51.450;-2.624;2022-11-20T01:49:37;10.80;;;4.63;;
24147;SDS011;12309;51.450;-2.624;2022-11-20T01:52:11;14.50;;;4.77;;
24147;SDS011;12309;51.450;-2.624;2022-11-20T01:54:43;10.43;;;4.43;;
24147;SDS011;12309;51.450;-2.624;2022-11-20T01:57:15;9.13;;;4.33;;
24147;SDS011;12309;51.450;-2.624;2022-11-20T01:59:44;9.20;;;4.30;;
24147;SDS011;12309;51.450;-2.624;2022-11-20T02:02:13;9.57;;;4.00;;
24147;SDS011;12309;51.450;-2.624;2022-11-20T02:04:39;7.90;;;4.20;;
24147;SDS011;12309;51.450;-2.624;2022-11-20T02:07:05;10.33;;;4.80;;
24147;SDS011;12309;51.450;-2.624;2022-11-20T02:09:31;11.87;;;4.83;;
24147;SDS011;12309;51.450;-2.624;2022-11-20T02:11:57;10.67;;;6.00;;
24147;SDS011;12309;51.450;-2.624;2022-11-20T02:14:24;11.53;;;5.70;;
24147;SDS011;12309;51.450;-2.624;2022-11-20T02:16:50;15.30;;;6.40;;
24147;SDS011;12309;51.450;-2.624;2022-11-20T02:19:30;11.93;;;6.00;;
24147;SDS011;12309;51.450;-2.624;2022-11-20T02:24:22;12.97;;;5.20;;
24147;SDS011;12309;51.450;-2.624;2022-11-20T02:29:47;6.87;;;3.73;;
24147;SDS011;12309;51.450;-2.624;2022-11-20T02:34:44;6.73;;;2.70;;
24147;SDS011;12309;51.450;-2.624;2022-11-20T02:37:10;1.53;;;1.27;;
24147;SDS011;12309;51.450;-2.624;2022-11-20T02:39:36;1.40;;;1.10;;
24147;SDS011;12309;51.450;-2.624;2022-11-20T02:42:02;3.17;;;1.37;;
24147;SDS011;12309;51.450;-2.624;2022-11-20T02:44:28;1.97;;;1.63;;
24147;SDS011;12309;51.450;-2.624;2022-11-20T02:46:56;3.17;;;1.47;;
24147;SDS011;12309;51.450;-2.624;2022-11-20T02:49:23;5.90;;;1.93;;
24147;SDS011;12309;51.450;-2.624;2022-11-20T02:51:49;5.00;;;2.27;;
24147;SDS011;12309;51.450;-2.624;2022-11-20T02:54:15;3.73;;;2.17;;
24147;SDS011;12309;51.450;-2.624;2022-11-20T02:56:40;3.20;;;2.00;;
24147;SDS011;12309;51.450;-2.624;2022-11-20T02:59:06;5.83;;;2.10;;
24147;SDS011;12309;51.450;-2.624;2022-11-20T03:01:32;2.10;;;1.67;;
24147;SDS011;12309;51.450;-2.624;2022-11-20T03:03:58;2.57;;;1.57;;
24147;SDS011;12309;51.450;-2.624;2022-11-20T03:06:23;2.73;;;1.30;;
24147;SDS011;12309;51.450;-2.624;2022-11-20T03:08:49;1.27;;;1.00;;
24147;SDS011;12309;51.450;-2.624;2022-11-20T03:11:15;3.00;;;1.10;;
24147;SDS011;12309;51.450;-2.624;2022-11-20T03:13:42;1.03;;;0.70;;
24147;SDS011;12309;51.450;-2.624;2022-11-20T03:16:17;1.40;;;1.00;;
24147;SDS011;12309;51.450;-2.624;2022-11-20T03:18:45;1.97;;;0.73;;
24147;SDS011;12309;51.450;-2.624;2022-11-20T03:21:10;1.30;;;1.10;;
24147;SDS011;12309;51.450;-2.624;2022-11-20T03:23:37;2.43;;;1.10;;
24147;SDS011;12309;51.450;-2.624;2022-11-20T03:26:07;1.20;;;0.97;;
24147;SDS011;12309;51.450;-2.624;2022-11-20T03:28:34;2.30;;;1.20;;
24147;SDS011;12309;51.450;-2.624;2022-11-20T03:31:11;1.20;;;0.90;;
24147;SDS011;12309;51.450;-2.624;2022-11-20T03:33:38;1.10;;;1.00;;
24147;SDS011;12309;51.450;-2.624;2022-11-20T03:36:06;3.73;;;1.03;;
24147;SDS011;12309;51.450;-2.624;2022-11-20T03:38:37;2.53;;;1.43;;
24147;SDS011;12309;51.450;-2.624;2022-11-20T03:41:07;2.20;;;1.40;;
24147;SDS011;12309;51.450;-2.624;2022-11-20T03:43:34;1.90;;;1.27;;
24147;SDS011;12309;51.450;-2.624;2022-11-20T03:46:01;1.90;;;1.30;;
24147;SDS011;12309;51.450;-2.624;2022-11-20T03:48:27;3.70;;;1.33;;
24147;SDS011;12309;51.450;-2.624;2022-11-20T03:51:06;1.87;;;1.60;;
24147;SDS011;12309;51.450;-2.624;2022-11-20T03:53:52;2.50;;;1.50;;
24147;SDS011;12309;51.450;-2.624;2022-11-20T03:56:20;2.30;;;1.50;;
24147;SDS011;12309;51.450;-2.624;2022-11-20T03:58:50;2.97;;;1.30;;
24147;SDS011;12309;51.450;-2.624;2022-11-20T04:01:17;3.00;;;1.60;;
24147;SDS011;12309;51.450;-2.624;2022-11-20T04:03:44;1.97;;;1.17;;
24147;SDS011;12309;51.450;-2.624;2022-11-20T04:06:15;3.33;;;1.10;;
24147;SDS011;12309;51.450;-2.624;2022-11-20T04:08:45;2.97;;;1.17;;
24147;SDS011;12309;51.450;-2.624;2022-11-20T04:11:18;3.40;;;0.87;;
24147;SDS011;12309;51.450;-2.624;2022-11-20T04:13:47;2.43;;;0.63;;
24147;SDS011;12309;51.450;-2.624;2022-11-20T04:16:14;2.47;;;1.00;;
24147;SDS011;12309;51.450;-2.624;2022-11-20T04:18:41;2.57;;;0.87;;
24147;SDS011;12309;51.450;-2.624;2022-11-20T04:21:08;1.40;;;0.63;;
24147;SDS011;12309;51.450;-2.624;2022-11-20T04:23:34;2.23;;;0.83;;
24147;SDS011;12309;51.450;-2.624;2022-11-20T04:26:04;1.70;;;0.50;;
24147;SDS011;12309;51.450;-2.624;2022-11-20T04:28:34;1.73;;;0.60;;
24147;SDS011;12309;51.450;-2.624;2022-11-20T04:31:01;3.87;;;0.63;;
24147;SDS011;12309;51.450;-2.624;2022-11-20T04:33:31;1.57;;;0.60;;
24147;SDS011;12309;51.450;-2.624;2022-11-20T04:35:59;2.70;;;0.73;;
24147;SDS011;12309;51.450;-2.624;2022-11-20T04:38:30;7.77;;;1.00;;
24147;SDS011;12309;51.450;-2.624;2022-11-20T04:40:59;5.93;;;1.00;;
24147;SDS011;12309;51.450;-2.624;2022-11-20T04:43:26;5.27;;;1.00;;
24147;SDS011;12309;51.450;-2.624;2022-11-20T04:45:55;5.93;;;1.10;;
24147;SDS011;12309;51.450;-2.624;2022-11-20T04:48:22;3.67;;;1.10;;
24147;SDS011;12309;51.450;-2.624;2022-11-20T04:50:48;6.87;;;0.93;;
24147;SDS011;12309;51.450;-2.624;2022-11-20T04:53:14;5.20;;;0.97;;
24147;SDS011;12309;51.450;-2.624;2022-11-20T04:55:40;4.03;;;1.00;;
24147;SDS011;12309;51.450;-2.624;2022-11-20T04:58:05;4.67;;;1.30;;
24147;SDS011;12309;51.450;-2.624;2022-11-20T05:00:31;7.57;;;1.10;;
24147;SDS011;12309;51.450;-2.624;2022-11-20T05:02:57;4.10;;;1.20;;
24147;SDS011;12309;51.450;-2.624;2022-11-20T05:05:22;3.93;;;1.07;;
24147;SDS011;12309;51.450;-2.624;2022-11-20T05:07:48;5.00;;;1.20;;
24147;SDS011;12309;51.450;-2.624;2022-11-20T05:10:14;5.00;;;1.07;;
24147;SDS011;12309;51.450;-2.624;2022-11-20T05:12:40;6.60;;;1.30;;
24147;SDS011;12309;51.450;-2.624;2022-11-20T05:15:06;4.57;;;1.30;;
24147;SDS011;12309;51.450;-2.624;2022-11-20T05:17:31;3.00;;;1.10;;
24147;SDS011;12309;51.450;-2.624;2022-11-20T05:19:57;5.47;;;1.40;;
24147;SDS011;12309;51.450;-2.624;2022-11-20T05:22:23;7.90;;;1.60;;
24147;SDS011;12309;51.450;-2.624;2022-11-20T05:24:48;4.83;;;1.27;;
24147;SDS011;12309;51.450;-2.624;2022-11-20T05:27:14;5.50;;;1.37;;
24147;SDS011;12309;51.450;-2.624;2022-11-20T05:29:40;10.70;;;1.30;;
24147;SDS011;12309;51.450;-2.624;2022-11-20T05:32:05;7.50;;;1.70;;
24147;SDS011;12309;51.450;-2.624;2022-11-20T05:34:33;5.53;;;1.50;;
24147;SDS011;12309;51.450;-2.624;2022-11-20T05:36:59;5.23;;;1.43;;
24147;SDS011;12309;51.450;-2.624;2022-11-20T05:39:25;4.70;;;1.53;;
24147;SDS011;12309;51.450;-2.624;2022-11-20T05:41:51;9.20;;;2.20;;
24147;SDS011;12309;51.450;-2.624;2022-11-20T05:44:36;9.60;;;2.17;;
24147;SDS011;12309;51.450;-2.624;2022-11-20T05:47:02;7.50;;;2.20;;
24147;SDS011;12309;51.450;-2.624;2022-11-20T05:49:27;5.87;;;1.97;;
24147;SDS011;12309;51.450;-2.624;2022-11-20T05:51:53;7.90;;;2.00;;
24147;SDS011;12309;51.450;-2.624;2022-11-20T05:54:18;7.03;;;1.83;;
24147;SDS011;12309;51.450;-2.624;2022-11-20T05:56:44;7.77;;;2.00;;
24147;SDS011;12309;51.450;-2.624;2022-11-20T05:59:09;6.27;;;2.10;;
24147;SDS011;12309;51.450;-2.624;2022-11-20T06:01:35;9.33;;;2.53;;
24147;SDS011;12309;51.450;-2.624;2022-11-20T06:04:01;6.40;;;2.20;;
24147;SDS011;12309;51.450;-2.624;2022-11-20T06:06:26;6.87;;;2.33;;
24147;SDS011;12309;51.450;-2.624;2022-11-20T06:08:52;9.67;;;2.07;;
24147;SDS011;12309;51.450;-2.624;2022-11-20T06:11:19;10.67;;;2.13;;
24147;SDS011;12309;51.450;-2.624;2022-11-20T06:13:44;10.23;;;2.43;;
24147;SDS011;12309;51.450;-2.624;2022-11-20T06:16:11;16.30;;;2.60;;
24147;SDS011;12309;51.450;-2.624;2022-11-20T06:18:38;12.07;;;2.83;;
24147;SDS011;12309;51.450;-2.624;2022-11-20T06:21:05;19.10;;;2.97;;
24147;SDS011;12309;51.450;-2.624;2022-11-20T06:23:33;14.10;;;2.60;;
24147;SDS011;12309;51.450;-2.624;2022-11-20T06:26:06;25.57;;;2.83;;
24147;SDS011;12309;51.450;-2.624;2022-11-20T06:28:34;14.60;;;2.63;;
24147;SDS011;12309;51.450;-2.624;2022-11-20T06:31:00;19.97;;;2.70;;
24147;SDS011;12309;51.450;-2.624;2022-11-20T06:33:27;25.70;;;3.57;;
24147;SDS011;12309;51.450;-2.624;2022-11-20T06:35:55;23.57;;;2.90;;
24147;SDS011;12309;51.450;-2.624;2022-11-20T06:38:23;17.80;;;3.20;;
24147;SDS011;12309;51.450;-2.624;2022-11-20T06:40:49;14.67;;;3.07;;
24147;SDS011;12309;51.450;-2.624;2022-11-20T06:43:15;11.07;;;2.73;;
24147;SDS011;12309;51.450;-2.624;2022-11-20T06:45:40;14.67;;;3.00;;
24147;SDS011;12309;51.450;-2.624;2022-11-20T06:48:06;13.97;;;3.10;;
24147;SDS011;12309;51.450;-2.624;2022-11-20T06:50:32;21.97;;;3.33;;
24147;SDS011;12309;51.450;-2.624;2022-11-20T06:53:00;20.70;;;3.40;;
24147;SDS011;12309;51.450;-2.624;2022-11-20T06:55:27;20.60;;;3.57;;
24147;SDS011;12309;51.450;-2.624;2022-11-20T06:57:53;22.70;;;3.37;;
24147;SDS011;12309;51.450;-2.624;2022-11-20T07:00:18;23.90;;;4.17;;
24147;SDS011;12309;51.450;-2.624;2022-11-20T07:02:44;22.57;;;3.37;;
24147;SDS011;12309;51.450;-2.624;2022-11-20T07:05:10;33.70;;;3.40;;
24147;SDS011;12309;51.450;-2.624;2022-11-20T07:07:35;21.93;;;3.87;;
24147;SDS011;12309;51.450;-2.624;2022-11-20T07:10:01;29.93;;;4.47;;
24147;SDS011;12309;51.450;-2.624;2022-11-20T07:12:27;27.40;;;4.63;;
24147;SDS011;12309;51.450;-2.624;2022-11-20T07:14:53;20.90;;;3.70;;
24147;SDS011;12309;51.450;-2.624;2022-11-20T07:17:18;19.00;;;4.03;;
24147;SDS011;12309;51.450;-2.624;2022-11-20T07:19:44;17.53;;;3.10;;
24147;SDS011;12309;51.450;-2.624;2022-11-20T07:22:09;19.97;;;3.73;;
24147;SDS011;12309;51.450;-2.624;2022-11-20T07:24:35;18.37;;;3.70;;
24147;SDS011;12309;51.450;-2.624;2022-11-20T07:27:00;46.57;;;3.83;;
24147;SDS011;12309;51.450;-2.624;2022-11-20T07:29:26;25.67;;;4.33;;
24147;SDS011;12309;51.450;-2.624;2022-11-20T07:31:52;31.83;;;4.43;;
24147;SDS011;12309;51.450;-2.624;2022-11-20T07:34:20;32.33;;;4.10;;
24147;SDS011;12309;51.450;-2.624;2022-11-20T07:36:46;44.03;;;4.40;;
24147;SDS011;12309;51.450;-2.624;2022-11-20T07:39:11;32.47;;;4.03;;
24147;SDS011;12309;51.450;-2.624;2022-11-20T07:41:37;30.63;;;4.43;;
24147;SDS011;12309;51.450;-2.624;2022-11-20T07:44:02;37.03;;;4.70;;
24147;SDS011;12309;51.450;-2.624;2022-11-20T07:46:28;23.90;;;4.10;;
24147;SDS011;12309;51.450;-2.624;2022-11-20T07:48:54;41.10;;;5.17;;
24147;SDS011;12309;51.450;-2.624;2022-11-20T07:51:19;31.67;;;4.00;;
24147;SDS011;12309;51.450;-2.624;2022-11-20T07:53:45;35.60;;;4.47;;
24147;SDS011;12309;51.450;-2.624;2022-11-20T07:56:11;24.83;;;4.30;;
24147;SDS011;12309;51.450;-2.624;2022-11-20T07:58:39;24.80;;;4.33;;
24147;SDS011;12309;51.450;-2.624;2022-11-20T08:01:05;30.10;;;4.20;;
24147;SDS011;12309;51.450;-2.624;2022-11-20T08:03:32;32.30;;;4.60;;
24147;SDS011;12309;51.450;-2.624;2022-11-20T08:05:59;27.00;;;4.00;;
24147;SDS011;12309;51.450;-2.624;2022-11-20T08:08:27;37.97;;;5.00;;
24147;SDS011;12309;51.450;-2.624;2022-11-20T08:10:53;28.63;;;4.40;;
24147;SDS011;12309;51.450;-2.624;2022-11-20T08:13:41;37.73;;;4.97;;
24147;SDS011;12309;51.450;-2.624;2022-11-20T08:16:25;31.53;;;5.47;;
24147;SDS011;12309;51.450;-2.624;2022-11-20T08:18:51;25.50;;;4.40;;
24147;SDS011;12309;51.450;-2.624;2022-11-20T08:21:16;32.33;;;4.90;;
24147;SDS011;12309;51.450;-2.624;2022-11-20T08:23:42;24.40;;;4.03;;
24147;SDS011;12309;51.450;-2.624;2022-11-20T08:26:07;17.53;;;4.07;;
24147;SDS011;12309;51.450;-2.624;2022-11-20T08:28:33;27.37;;;4.37;;
24147;SDS011;12309;51.450;-2.624;2022-11-20T08:30:59;21.67;;;3.63;;
24147;SDS011;12309;51.450;-2.624;2022-11-20T08:33:25;21.23;;;3.60;;
24147;SDS011;12309;51.450;-2.624;2022-11-20T08:35:51;20.37;;;3.37;;
24147;SDS011;12309;51.450;-2.624;2022-11-20T08:38:17;30.53;;;4.00;;
24147;SDS011;12309;51.450;-2.624;2022-11-20T08:40:43;36.07;;;4.30;;
24147;SDS011;12309;51.450;-2.624;2022-11-20T08:43:32;31.97;;;3.77;;
24147;SDS011;12309;51.450;-2.624;2022-11-20T08:45:58;21.13;;;3.70;;
24147;SDS011;12309;51.450;-2.624;2022-11-20T08:48:24;26.87;;;4.40;;
24147;SDS011;12309;51.450;-2.624;2022-11-20T08:50:50;34.93;;;4.67;;
24147;SDS011;12309;51.450;-2.624;2022-11-20T08:53:15;25.17;;;4.40;;
24147;SDS011;12309;51.450;-2.624;2022-11-20T08:55:41;35.23;;;4.63;;
24147;SDS011;12309;51.450;-2.624;2022-11-20T08:58:06;34.30;;;4.40;;
24147;SDS011;12309;51.450;-2.624;2022-11-20T09:00:32;23.57;;;3.97;;
24147;SDS011;12309;51.450;-2.624;2022-11-20T09:02:59;29.00;;;4.60;;
24147;SDS011;12309;51.450;-2.624;2022-11-20T09:05:26;33.00;;;4.07;;
24147;SDS011;12309;51.450;-2.624;2022-11-20T09:07:51;35.53;;;4.17;;
24147;SDS011;12309;51.450;-2.624;2022-11-20T09:10:20;18.67;;;3.77;;
24147;SDS011;12309;51.450;-2.624;2022-11-20T09:12:48;33.80;;;4.57;;
24147;SDS011;12309;51.450;-2.624;2022-11-20T09:15:14;35.43;;;3.90;;
24147;SDS011;12309;51.450;-2.624;2022-11-20T09:17:40;32.53;;;5.10;;
24147;SDS011;12309;51.450;-2.624;2022-11-20T09:20:06;26.33;;;4.23;;
24147;SDS011;12309;51.450;-2.624;2022-11-20T09:22:32;33.83;;;5.37;;
24147;SDS011;12309;51.450;-2.624;2022-11-20T09:24:57;35.67;;;4.83;;
24147;SDS011;12309;51.450;-2.624;2022-11-20T09:27:23;30.57;;;4.23;;
24147;SDS011;12309;51.450;-2.624;2022-11-20T09:29:49;32.40;;;4.63;;
24147;SDS011;12309;51.450;-2.624;2022-11-20T09:32:14;30.37;;;5.30;;
24147;SDS011;12309;51.450;-2.624;2022-11-20T09:34:40;32.67;;;4.63;;
24147;SDS011;12309;51.450;-2.624;2022-11-20T09:37:05;31.83;;;4.67;;
24147;SDS011;12309;51.450;-2.624;2022-11-20T09:39:31;40.33;;;4.40;;
24147;SDS011;12309;51.450;-2.624;2022-11-20T09:52:45;39.30;;;5.53;;
24147;SDS011;12309;51.450;-2.624;2022-11-20T09:55:12;25.53;;;4.73;;
24147;SDS011;12309;51.450;-2.624;2022-11-20T09:57:40;41.10;;;5.40;;
24147;SDS011;12309;51.450;-2.624;2022-11-20T10:00:10;29.13;;;4.43;;
24147;SDS011;12309;51.450;-2.624;2022-11-20T10:02:39;30.43;;;4.70;;
24147;SDS011;12309;51.450;-2.624;2022-11-20T10:05:19;31.60;;;4.20;;
24147;SDS011;12309;51.450;-2.624;2022-11-20T10:10:45;37.53;;;4.70;;
24147;SDS011;12309;51.450;-2.624;2022-11-20T10:29:41;24.37;;;4.10;;
24147;SDS011;12309;51.450;-2.624;2022-11-20T10:32:16;24.07;;;4.20;;
24147;SDS011;12309;51.450;-2.624;2022-11-20T10:34:52;24.40;;;3.97;;
24147;SDS011;12309;51.450;-2.624;2022-11-20T10:37:30;24.83;;;3.30;;
24147;SDS011;12309;51.450;-2.624;2022-11-20T10:47:59;29.42;;;4.43;;
24147;SDS011;12309;51.450;-2.624;2022-11-20T11:01:44;27.98;;;4.10;;
24147;SDS011;12309;51.450;-2.624;2022-11-20T11:04:17;23.63;;;3.47;;
24147;SDS011;12309;51.450;-2.624;2022-11-20T11:06:45;20.15;;;4.20;;
24147;SDS011;12309;51.450;-2.624;2022-11-20T11:09:16;20.75;;;3.33;;
24147;SDS011;12309;51.450;-2.624;2022-11-20T11:11:46;13.95;;;2.88;;
24147;SDS011;12309;51.450;-2.624;2022-11-20T11:14:13;24.95;;;3.60;;
24147;SDS011;12309;51.450;-2.624;2022-11-20T11:16:50;17.77;;;3.72;;
24147;SDS011;12309;51.450;-2.624;2022-11-20T11:19:20;22.13;;;3.63;;
24147;SDS011;12309;51.450;-2.624;2022-11-20T11:21:49;16.80;;;3.30;;
24147;SDS011;12309;51.450;-2.624;2022-11-20T11:24:23;16.13;;;3.53;;
24147;SDS011;12309;51.450;-2.624;2022-11-20T11:27:00;10.40;;;3.13;;
24147;SDS011;12309;51.450;-2.624;2022-11-20T11:29:29;18.08;;;3.47;;
24147;SDS011;12309;51.450;-2.624;2022-11-20T11:32:08;18.55;;;3.17;;
24147;SDS011;12309;51.450;-2.624;2022-11-20T11:34:38;18.55;;;3.47;;
24147;SDS011;12309;51.450;-2.624;2022-11-20T11:37:03;16.67;;;3.38;;
24147;SDS011;12309;51.450;-2.624;2022-11-20T11:39:35;21.45;;;3.63;;
24147;SDS011;12309;51.450;-2.624;2022-11-20T11:42:01;23.55;;;4.22;;
24147;SDS011;12309;51.450;-2.624;2022-11-20T11:44:28;20.42;;;4.80;;
24147;SDS011;12309;51.450;-2.624;2022-11-20T11:47:23;22.45;;;4.30;;
24147;SDS011;12309;51.450;-2.624;2022-11-20T11:52:34;20.85;;;3.65;;
24147;SDS011;12309;51.450;-2.624;2022-11-20T11:55:12;13.90;;;3.97;;
24147;SDS011;12309;51.450;-2.624;2022-11-20T11:57:45;19.23;;;3.55;;
24147;SDS011;12309;51.450;-2.624;2022-11-20T12:00:16;18.98;;;4.00;;
24147;SDS011;12309;51.450;-2.624;2022-11-20T12:05:20;21.27;;;3.40;;
24147;SDS011;12309;51.450;-2.624;2022-11-20T12:10:50;27.73;;;3.75;;
24147;SDS011;12309;51.450;-2.624;2022-11-20T12:16:07;23.07;;;3.57;;
24147;SDS011;12309;51.450;-2.624;2022-11-20T12:18:40;25.73;;;4.17;;
24147;SDS011;12309;51.450;-2.624;2022-11-20T12:32:03;17.67;;;2.00;;
24147;SDS011;12309;51.450;-2.624;2022-11-20T12:37:32;15.33;;;1.50;;
24147;SDS011;12309;51.450;-2.624;2022-11-20T12:40:14;19.17;;;1.97;;
24147;SDS011;12309;51.450;-2.624;2022-11-20T12:43:26;23.37;;;2.47;;
24147;SDS011;12309;51.450;-2.624;2022-11-20T12:52:00;18.20;;;2.27;;
24147;SDS011;12309;51.450;-2.624;2022-11-20T13:00:07;17.97;;;2.10;;
24147;SDS011;12309;51.450;-2.624;2022-11-20T13:05:31;14.47;;;2.53;;
24147;SDS011;12309;51.450;-2.624;2022-11-20T13:08:18;8.63;;;1.40;;
24147;SDS011;12309;51.450;-2.624;2022-11-20T13:11:00;10.90;;;1.53;;
24147;SDS011;12309;51.450;-2.624;2022-11-20T13:13:35;8.57;;;2.00;;
24147;SDS011;12309;51.450;-2.624;2022-11-20T13:19:17;10.73;;;1.70;;
24147;SDS011;12309;51.450;-2.624;2022-11-20T13:21:46;11.73;;;1.80;;
24147;SDS011;12309;51.450;-2.624;2022-11-20T13:26:44;12.70;;;1.87;;
24147;SDS011;12309;51.450;-2.624;2022-11-20T13:29:11;13.10;;;1.60;;
24147;SDS011;12309;51.450;-2.624;2022-11-20T13:31:45;14.00;;;1.63;;
24147;SDS011;12309;51.450;-2.624;2022-11-20T13:34:14;9.23;;;1.57;;
24147;SDS011;12309;51.450;-2.624;2022-11-20T13:36:50;8.30;;;1.07;;
24147;SDS011;12309;51.450;-2.624;2022-11-20T13:39:27;8.83;;;1.50;;
24147;SDS011;12309;51.450;-2.624;2022-11-20T13:41:56;14.97;;;1.23;;
24147;SDS011;12309;51.450;-2.624;2022-11-20T13:44:25;8.23;;;1.20;;
24147;SDS011;12309;51.450;-2.624;2022-11-20T13:46:52;14.20;;;1.27;;
24147;SDS011;12309;51.450;-2.624;2022-11-20T13:49:28;9.63;;;1.20;;
24147;SDS011;12309;51.450;-2.624;2022-11-20T14:00:14;9.80;;;1.90;;
24147;SDS011;12309;51.450;-2.624;2022-11-20T14:02:41;14.00;;;1.90;;
24147;SDS011;12309;51.450;-2.624;2022-11-20T14:05:17;9.77;;;1.37;;
24147;SDS011;12309;51.450;-2.624;2022-11-20T14:07:48;10.80;;;1.33;;
24147;SDS011;12309;51.450;-2.624;2022-11-20T14:10:48;11.90;;;1.37;;
24147;SDS011;12309;51.450;-2.624;2022-11-20T14:13:10;7.77;;;1.10;;
24147;SDS011;12309;51.450;-2.624;2022-11-20T14:15:42;9.53;;;1.30;;
24147;SDS011;12309;51.450;-2.624;2022-11-20T14:18:18;8.10;;;1.03;;
24147;SDS011;12309;51.450;-2.624;2022-11-20T14:20:45;10.07;;;1.30;;
24147;SDS011;12309;51.450;-2.624;2022-11-20T14:23:11;6.93;;;1.10;;
24147;SDS011;12309;51.450;-2.624;2022-11-20T14:25:41;8.00;;;1.27;;
24147;SDS011;12309;51.450;-2.624;2022-11-20T14:28:10;13.73;;;1.33;;
24147;SDS011;12309;51.450;-2.624;2022-11-20T14:30:44;8.23;;;1.17;;
24147;SDS011;12309;51.450;-2.624;2022-11-20T14:33:13;6.33;;;1.27;;
24147;SDS011;12309;51.450;-2.624;2022-11-20T14:35:49;8.60;;;1.23;;
24147;SDS011;12309;51.450;-2.624;2022-11-20T14:38:17;9.02;;;1.58;;
24147;SDS011;12309;51.450;-2.624;2022-11-20T14:40:46;11.15;;;1.70;;
24147;SDS011;12309;51.450;-2.624;2022-11-20T14:43:30;12.38;;;1.60;;
24147;SDS011;12309;51.450;-2.624;2022-11-20T14:48:49;13.05;;;1.73;;
24147;SDS011;12309;51.450;-2.624;2022-11-20T14:51:29;10.57;;;2.10;;
24147;SDS011;12309;51.450;-2.624;2022-11-20T14:54:08;13.60;;;2.03;;
24147;SDS011;12309;51.450;-2.624;2022-11-20T14:56:34;14.33;;;2.03;;
24147;SDS011;12309;51.450;-2.624;2022-11-20T14:59:00;15.70;;;1.80;;
24147;SDS011;12309;51.450;-2.624;2022-11-20T15:01:27;13.17;;;2.13;;
24147;SDS011;12309;51.450;-2.624;2022-11-20T15:04:00;13.33;;;1.87;;
24147;SDS011;12309;51.450;-2.624;2022-11-20T15:06:30;17.40;;;2.30;;
24147;SDS011;12309;51.450;-2.624;2022-11-20T15:08:56;8.77;;;1.80;;
24147;SDS011;12309;51.450;-2.624;2022-11-20T15:11:25;14.73;;;2.63;;
24147;SDS011;12309;51.450;-2.624;2022-11-20T15:13:55;12.40;;;2.13;;
24147;SDS011;12309;51.450;-2.624;2022-11-20T15:16:21;11.33;;;2.00;;
24147;SDS011;12309;51.450;-2.624;2022-11-20T15:18:48;8.43;;;2.03;;
24147;SDS011;12309;51.450;-2.624;2022-11-20T15:21:15;9.52;;;1.92;;
24147;SDS011;12309;51.450;-2.624;2022-11-20T15:23:42;10.52;;;1.50;;
24147;SDS011;12309;51.450;-2.624;2022-11-20T15:26:08;10.48;;;2.20;;
24147;SDS011;12309;51.450;-2.624;2022-11-20T15:28:37;7.43;;;1.17;;
24147;SDS011;12309;51.450;-2.624;2022-11-20T15:31:06;8.27;;;1.73;;
24147;SDS011;12309;51.450;-2.624;2022-11-20T15:33:34;9.57;;;1.20;;
24147;SDS011;12309;51.450;-2.624;2022-11-20T15:36:00;9.85;;;1.65;;
24147;SDS011;12309;51.450;-2.624;2022-11-20T15:38:25;7.37;;;1.40;;
24147;SDS011;12309;51.450;-2.624;2022-11-20T15:40:51;7.03;;;1.50;;
24147;SDS011;12309;51.450;-2.624;2022-11-20T15:43:17;4.43;;;1.13;;
24147;SDS011;12309;51.450;-2.624;2022-11-20T15:45:44;11.40;;;1.50;;
24147;SDS011;12309;51.450;-2.624;2022-11-20T15:48:29;5.90;;;1.50;;
24147;SDS011;12309;51.450;-2.624;2022-11-20T15:53:36;9.27;;;1.40;;
24147;SDS011;12309;51.450;-2.624;2022-11-20T15:56:02;9.03;;;1.43;;
24147;SDS011;12309;51.450;-2.624;2022-11-20T15:58:29;8.80;;;1.67;;
24147;SDS011;12309;51.450;-2.624;2022-11-20T16:00:55;5.77;;;1.50;;
24147;SDS011;12309;51.450;-2.624;2022-11-20T16:03:21;6.73;;;1.43;;
24147;SDS011;12309;51.450;-2.624;2022-11-20T16:05:47;10.60;;;1.97;;
24147;SDS011;12309;51.450;-2.624;2022-11-20T16:08:13;5.53;;;0.90;;
24147;SDS011;12309;51.450;-2.624;2022-11-20T16:10:39;8.50;;;1.23;;
24147;SDS011;12309;51.450;-2.624;2022-11-20T16:13:05;9.40;;;1.23;;
24147;SDS011;12309;51.450;-2.624;2022-11-20T16:15:57;7.27;;;1.30;;
24147;SDS011;12309;51.450;-2.624;2022-11-20T16:18:24;7.60;;;1.30;;
24147;SDS011;12309;51.450;-2.624;2022-11-20T16:20:51;11.37;;;1.60;;
24147;SDS011;12309;51.450;-2.624;2022-11-20T16:23:17;7.40;;;1.20;;
24147;SDS011;12309;51.450;-2.624;2022-11-20T16:25:43;10.10;;;1.80;;
24147;SDS011;12309;51.450;-2.624;2022-11-20T16:28:09;8.13;;;1.50;;
24147;SDS011;12309;51.450;-2.624;2022-11-20T16:30:36;7.47;;;1.30;;